Dades meteomassalio
Diari Summary for Juny 26, 2017 Units:  Metric    English   Both
« Previous Day
Next Day »
Diari Semanal Mensual Anual Personalitzat
  Maxima: Minima: Mijana:
Temperatura: 31.9 °C 19.6 °C 25.3 °C
Rosada: 21.1 °C 14.8 °C 17.7 °C
Humitat: 92 % 41 % 66 %
Velocitat del vent: 25.9 km/h 0.0 km/h 7.1 km/h
Racha vent: 25.9 km/h - -
Vent:- - SSE
Pressio: 1013.1 hPa 1007.7 hPa -
Pluja: 4.3 mm    
Historical Graphs
 
 
Tabular Data for Juny 26, 2017
Time Temperature Dew Point Pressure Wind Wind Speed Wind Gust Humidity Rainfall Rate (Hourly) solar Conditions
00:03 24.3 °C 15.3 °C 1012.1 hPa SSE 8.0 km/h 8.0 km/h 57 % 0.0 mm 0.0 W/m2 CLR
00:08 24.2 °C 15.2 °C 1012.1 hPa SE 18.5 km/h 18.5 km/h 57 % 0.0 mm 0.0 W/m2 CLR
00:13 24.3 °C 15.2 °C 1012.1 hPa SE 18.5 km/h 18.5 km/h 57 % 0.0 mm 0.0 W/m2 CLR
00:18 24.3 °C 15.3 °C 1012.4 hPa SSE 5.6 km/h 5.6 km/h 57 % 0.0 mm 0.0 W/m2 CLR
00:23 24.3 °C 15.5 °C 1012.4 hPa SSE 9.7 km/h 9.7 km/h 58 % 0.0 mm 0.0 W/m2 CLR
00:28 24.2 °C 15.9 °C 1012.4 hPa SSE 18.5 km/h 18.5 km/h 60 % 0.0 mm 0.0 W/m2 CLR
00:33 24.1 °C 16.1 °C 1012.4 hPa SSE 16.7 km/h 16.7 km/h 61 % 0.0 mm 0.0 W/m2 CLR
00:38 24.1 °C 16.1 °C 1012.8 hPa Calm     61 % 0.0 mm 0.0 W/m2 CLR
00:43 24.0 °C 16.0 °C 1012.4 hPa Calm     61 % 0.0 mm 0.0 W/m2 CLR
00:48 23.9 °C 15.9 °C 1012.8 hPa Calm     61 % 0.0 mm 0.0 W/m2 CLR
00:53 23.8 °C 15.8 °C 1012.8 hPa NW 5.6 km/h 5.6 km/h 61 % 0.0 mm 0.0 W/m2 CLR
00:58 23.6 °C 15.9 °C 1012.8 hPa WSW 5.6 km/h 5.6 km/h 62 % 0.0 mm 0.0 W/m2 CLR
01:03 23.7 °C 15.7 °C 1013.1 hPa SSW 9.7 km/h 9.7 km/h 61 % 0.0 mm 0.0 W/m2 CLR
01:08 23.7 °C 15.8 °C 1012.8 hPa SW 13.0 km/h 13.0 km/h 61 % 0.0 mm 0.0 W/m2 CLR
01:13 23.7 °C 15.4 °C 1013.1 hPa NW 13.0 km/h 13.0 km/h 60 % 0.0 mm 0.0 W/m2 CLR
01:18 23.6 °C 14.8 °C 1013.1 hPa West 11.1 km/h 11.1 km/h 58 % 0.0 mm 0.0 W/m2 CLR
01:23 23.8 °C 17.3 °C 1013.1 hPa West 14.8 km/h 14.8 km/h 67 % 0.0 mm 0.0 W/m2 CLR
01:28 23.7 °C 18.6 °C 1013.1 hPa West 7.4 km/h 7.4 km/h 73 % 0.0 mm 0.0 W/m2 CLR
01:33 23.5 °C 18.6 °C 1013.1 hPa West 7.4 km/h 7.4 km/h 74 % 0.0 mm 0.0 W/m2 CLR
01:38 23.3 °C 18.7 °C 1013.1 hPa Calm     75 % 0.0 mm 0.0 W/m2 CLR
01:43 23.2 °C 18.8 °C 1012.8 hPa Calm     76 % 0.0 mm 0.0 W/m2 CLR
01:48 23.1 °C 18.8 °C 1012.8 hPa Calm     77 % 0.0 mm 0.0 W/m2 CLR
01:53 22.9 °C 18.5 °C 1012.8 hPa Calm     76 % 0.0 mm 0.0 W/m2 CLR
01:54 23.0 °C 18.6 °C 1012.8 hPa Calm     76 % 0.0 mm 0.0 W/m2 CLR
01:59 22.8 °C 18.4 °C 1012.8 hPa Calm     76 % 0.0 mm 0.0 W/m2 CLR
02:04 22.7 °C 18.1 °C 1012.4 hPa Calm     75 % 0.0 mm 0.0 W/m2 CLR
02:09 22.6 °C 17.9 °C 1012.4 hPa Calm     75 % 0.0 mm 0.0 W/m2 CLR
02:14 22.4 °C 18.0 °C 1012.4 hPa Calm     76 % 0.0 mm 0.0 W/m2 CLR
02:19 22.3 °C 17.9 °C 1012.1 hPa Calm     76 % 0.0 mm 0.0 W/m2 CLR
02:24 22.2 °C 17.9 °C 1012.1 hPa Calm     77 % 0.0 mm 0.0 W/m2 CLR
02:29 22.1 °C 18.1 °C 1012.1 hPa Calm     78 % 0.0 mm 0.0 W/m2 CLR
02:34 22.0 °C 17.8 °C 1012.1 hPa Calm     77 % 0.0 mm 0.0 W/m2 CLR
02:39 22.0 °C 18.2 °C 1011.7 hPa Calm     79 % 0.0 mm 0.0 W/m2 CLR
02:44 21.8 °C 17.6 °C 1011.7 hPa Calm     77 % 0.0 mm 0.0 W/m2 CLR
02:49 21.7 °C 18.1 °C 1011.4 hPa Calm     80 % 0.0 mm 0.0 W/m2 CLR
02:54 21.6 °C 17.8 °C 1011.4 hPa Calm     79 % 0.0 mm 0.0 W/m2 CLR
02:59 21.4 °C 17.7 °C 1011.1 hPa Calm     79 % 0.0 mm 0.0 W/m2 CLR
03:04 21.4 °C 18.0 °C 1011.1 hPa Calm     81 % 0.0 mm 0.0 W/m2 CLR
03:05 21.4 °C 18.0 °C 1011.1 hPa Calm     81 % 0.0 mm 0.0 W/m2 CLR
03:10 21.2 °C 17.4 °C 1011.1 hPa Calm     79 % 0.0 mm 0.0 W/m2 CLR
03:15 21.2 °C 17.8 °C 1011.1 hPa Calm     81 % 0.0 mm 0.0 W/m2 CLR
03:20 21.0 °C 17.8 °C 1011.1 hPa Calm     82 % 0.0 mm 0.0 W/m2 CLR
03:26 20.9 °C 17.7 °C 1011.1 hPa Calm     82 % 0.0 mm 0.0 W/m2 CLR
03:31 20.8 °C 17.8 °C 1011.1 hPa Calm     83 % 0.0 mm 0.0 W/m2 CLR
03:36 20.7 °C 17.9 °C 1011.1 hPa Calm     84 % 0.0 mm 0.0 W/m2 CLR
03:41 20.9 °C 18.4 °C 1011.7 hPa West 9.7 km/h 9.7 km/h 86 % 0.0 mm 0.0 W/m2 CLR
03:46 21.1 °C 18.6 °C 1012.8 hPa West 20.4 km/h 20.4 km/h 86 % 0.0 mm 0.0 W/m2 CLR
03:51 21.2 °C 18.6 °C 1011.7 hPa NW 8.0 km/h 8.0 km/h 85 % 0.0 mm 0.0 W/m2 CLR
03:56 21.2 °C 18.6 °C 1009.7 hPa SE 18.5 km/h 18.5 km/h 85 % 0.3 mm 0.0 W/m2 RA
04:01 21.1 °C 18.6 °C 1010.4 hPa Calm     86 % 0.3 mm 0.0 W/m2
04:06 20.9 °C 18.7 °C 1011.4 hPa WNW 14.8 km/h 14.8 km/h 87 % 0.3 mm 0.0 W/m2 CLR
04:11 20.9 °C 18.7 °C 1011.4 hPa WNW 11.1 km/h 11.1 km/h 87 % 0.3 mm 0.0 W/m2 CLR
04:16 20.9 °C 18.7 °C 1011.7 hPa Calm     87 % 0.3 mm 0.0 W/m2 CLR
04:21 20.9 °C 18.9 °C 1012.4 hPa WSW 8.0 km/h 8.0 km/h 88 % 0.3 mm 0.0 W/m2 CLR
04:26 21.0 °C 18.9 °C 1012.8 hPa West 18.5 km/h 18.5 km/h 88 % 0.3 mm 0.0 W/m2 CLR
04:31 21.1 °C 18.8 °C 1013.1 hPa West 22.2 km/h 22.2 km/h 87 % 0.3 mm 0.0 W/m2 CLR
04:36 21.0 °C 18.8 °C 1012.8 hPa WNW 20.9 km/h 20.9 km/h 87 % 0.3 mm 0.0 W/m2 CLR
04:41 20.9 °C 18.7 °C 1012.4 hPa WNW 11.1 km/h 11.1 km/h 87 % 0.3 mm 0.0 W/m2 CLR
04:46 20.8 °C 18.6 °C 1012.4 hPa WNW 9.3 km/h 9.3 km/h 87 % 0.3 mm 0.0 W/m2 CLR
04:51 20.8 °C 18.3 °C 1011.7 hPa Calm     86 % 0.3 mm 0.0 W/m2 CLR
04:56 20.7 °C 18.5 °C 1011.1 hPa Calm     87 % 0.0 mm 0.0 W/m2 CLR
05:01 20.7 °C 18.5 °C 1010.7 hPa Calm     87 % 0.0 mm 0.0 W/m2 CLR
05:06 20.7 °C 18.5 °C 1011.1 hPa Calm     87 % 0.0 mm 0.0 W/m2 CLR
05:11 20.7 °C 18.5 °C 1011.4 hPa Calm     87 % 0.0 mm 0.0 W/m2 CLR
05:16 20.7 °C 18.4 °C 1011.1 hPa Calm     87 % 0.0 mm 0.0 W/m2 CLR
05:21 20.6 °C 18.3 °C 1011.1 hPa Calm     87 % 0.0 mm 0.0 W/m2 CLR
05:26 20.4 °C 18.2 °C 1011.1 hPa Calm     87 % 0.0 mm 0.0 W/m2 CLR
05:31 20.3 °C 18.2 °C 1011.1 hPa Calm     88 % 0.0 mm 0.0 W/m2 CLR
05:36 20.2 °C 18.1 °C 1011.4 hPa Calm     88 % 0.0 mm 0.0 W/m2 CLR
05:41 20.1 °C 18.2 °C 1010.7 hPa Calm     89 % 0.0 mm 0.0 W/m2 CLR
05:46 20.1 °C 18.2 °C 1010.4 hPa Calm     89 % 0.0 mm 0.0 W/m2 CLR
05:51 20.1 °C 18.2 °C 1010.7 hPa Calm     89 % 0.0 mm 0.0 W/m2 CLR
05:56 20.0 °C 18.1 °C 1010.7 hPa Calm     89 % 0.0 mm 0.0 W/m2 CLR
06:01 20.0 °C 18.1 °C 1011.1 hPa Calm     89 % 0.0 mm 0.0 W/m2 CLR
06:06 20.0 °C 18.3 °C 1011.7 hPa NW 12.9 km/h 12.9 km/h 90 % 0.0 mm 0.0 W/m2 CLR
06:11 20.0 °C 18.1 °C 1011.4 hPa NW 7.4 km/h   89 % 0.0 mm 0.0 W/m2 CLR
06:16 20.1 °C 18.2 °C 1011.1 hPa Calm     89 % 0.0 mm 0.0 W/m2 CLR
06:21 20.1 °C 18.2 °C 1011.1 hPa ESE 8.0 km/h 8.0 km/h 89 % 0.0 mm 0.0 W/m2 OVC
06:26 20.1 °C 18.2 °C 1010.4 hPa East 13.0 km/h 13.0 km/h 89 % 0.5 mm 0.0 W/m2 RA
06:31 20.0 °C 18.1 °C 1010.4 hPa ENE 5.6 km/h 5.6 km/h 89 % 0.8 mm 0.0 W/m2 RA
06:36 20.0 °C 18.3 °C 1010.0 hPa ESE 5.6 km/h   90 % 0.8 mm 0.0 W/m2
06:41 20.1 °C 18.4 °C 1010.0 hPa ESE 5.6 km/h 5.6 km/h 90 % 1.0 mm 0.0 W/m2 RA
06:46 20.0 °C 18.3 °C 1010.0 hPa NNE 1.9 km/h 1.9 km/h 90 % 1.3 mm 0.0 W/m2 RA
06:51 20.1 °C 18.6 °C 1010.7 hPa NNW 17.7 km/h 17.7 km/h 91 % 1.5 mm 0.0 W/m2 RA
06:56 19.9 °C 18.4 °C 1010.7 hPa NW 11.1 km/h 11.1 km/h 91 % 1.5 mm 0.0 W/m2 CLR
07:01 19.8 °C 18.3 °C 1011.1 hPa NNW 9.3 km/h 9.3 km/h 91 % 1.8 mm 0.0 W/m2 RA
07:06 19.7 °C 18.2 °C 1010.7 hPa Calm     91 % 1.8 mm 0.0 W/m2 CLR
07:11 19.7 °C 18.2 °C 1010.7 hPa Calm     91 % 1.8 mm 5.0 W/m2 OVC
07:16 19.7 °C 18.2 °C 1010.7 hPa NNW 4.8 km/h 4.8 km/h 91 % 1.8 mm 9.0 W/m2 BKN
07:21 19.7 °C 18.2 °C 1011.4 hPa WNW 18.5 km/h 18.5 km/h 91 % 2.0 mm 5.0 W/m2 RA
07:26 19.7 °C 18.2 °C 1012.1 hPa WNW 22.5 km/h 22.5 km/h 91 % 1.5 mm 5.0 W/m2
07:31 19.8 °C 18.3 °C 1010.7 hPa Calm     91 % 2.5 mm 5.0 W/m2 RA
07:36 19.8 °C 18.3 °C 1010.7 hPa Calm     91 % 3.0 mm 5.0 W/m2 RA
07:41 19.8 °C 18.3 °C 1010.7 hPa Calm     91 % 3.0 mm 9.0 W/m2 RA
07:46 19.7 °C 18.2 °C 1010.7 hPa Calm     91 % 3.0 mm 12.0 W/m2 RA
07:51 19.7 °C 18.2 °C 1011.1 hPa Calm     91 % 2.8 mm 7.0 W/m2 BKN
07:56 19.7 °C 18.2 °C 1010.7 hPa Calm     91 % 2.8 mm 9.0 W/m2 BKN
08:01 19.7 °C 18.3 °C 1011.1 hPa Calm     92 % 2.3 mm 32.0 W/m2 BKN
08:06 19.6 °C 18.3 °C 1011.1 hPa Calm     92 % 2.3 mm 62.0 W/m2 BKN
08:11 19.6 °C 18.3 °C 1010.7 hPa Calm     92 % 2.3 mm 149.0 W/m2 SCT
08:16 19.6 °C 18.3 °C 1010.7 hPa Calm     92 % 2.3 mm 127.0 W/m2 CLR
08:21 19.7 °C 18.3 °C 1010.7 hPa Calm     92 % 2.3 mm 151.0 W/m2 CLR
08:26 19.7 °C 18.3 °C 1011.1 hPa Calm     92 % 2.3 mm 91.0 W/m2 CLR
08:31 19.7 °C 18.3 °C 1011.1 hPa Calm     92 % 0.8 mm 81.0 W/m2 CLR
08:36 19.6 °C 18.3 °C 1011.1 hPa Calm     92 % 0.5 mm 67.0 W/m2 CLR
08:41 19.7 °C 18.3 °C 1011.1 hPa Calm     92 % 0.3 mm 67.0 W/m2 FEW
08:46 19.6 °C 18.1 °C 1010.7 hPa Calm     91 % 0.0 mm 105.0 W/m2 SCT
08:51 19.7 °C 18.2 °C 1010.7 hPa Calm     91 % 0.0 mm 169.0 W/m2 FEW
08:56 19.7 °C 18.2 °C 1010.7 hPa Calm     91 % 0.0 mm 267.0 W/m2 CLR
09:02 19.9 °C 18.4 °C 1010.7 hPa Calm     91 % 0.0 mm 251.0 W/m2 CLR
09:07 20.0 °C 18.5 °C 1010.7 hPa Calm     91 % 0.0 mm 207.0 W/m2 CLR
09:12 20.2 °C 18.7 °C 1010.7 hPa Calm     91 % 0.0 mm 213.0 W/m2 CLR
09:17 20.2 °C 18.6 °C 1010.7 hPa Calm     90 % 0.0 mm 237.0 W/m2 CLR
09:22 20.4 °C 18.7 °C 1010.7 hPa Calm     90 % 0.0 mm 199.0 W/m2 CLR
09:27 20.7 °C 19.2 °C 1010.7 hPa Calm     91 % 0.0 mm 221.0 W/m2 CLR
09:32 20.9 °C 19.2 °C 1010.7 hPa Calm     90 % 0.0 mm 323.0 W/m2 CLR
09:37 20.9 °C 19.2 °C 1010.7 hPa Calm     90 % 0.0 mm 297.0 W/m2 CLR
09:42 21.2 °C 19.4 °C 1010.7 hPa Calm     90 % 0.0 mm 352.0 W/m2 CLR
09:47 21.2 °C 19.3 °C 1010.7 hPa Calm     89 % 0.0 mm 301.0 W/m2 CLR
09:52 21.3 °C 19.4 °C 1010.4 hPa Calm     89 % 0.0 mm 429.0 W/m2 CLR
09:57 21.3 °C 19.2 °C 1010.4 hPa Calm     88 % 0.0 mm 387.0 W/m2 CLR
10:02 21.6 °C 19.7 °C 1010.4 hPa Calm     89 % 0.0 mm 599.0 W/m2 CLR
10:07 21.7 °C 19.7 °C 1010.4 hPa Calm     88 % 0.0 mm 649.0 W/m2 CLR
10:12 21.8 °C 19.8 °C 1010.4 hPa Calm     88 % 0.0 mm 752.0 W/m2 CLR
10:17 21.9 °C 19.7 °C 1010.4 hPa Calm     87 % 0.0 mm 765.0 W/m2 CLR
10:22 22.2 °C 19.9 °C 1010.4 hPa Calm     87 % 0.0 mm 782.0 W/m2 CLR
10:27 22.4 °C 20.1 °C 1010.4 hPa Calm     87 % 0.0 mm 782.0 W/m2 CLR
10:32 22.6 °C 20.1 °C 1010.4 hPa Calm     86 % 0.0 mm 279.0 W/m2 CLR
10:37 22.6 °C 19.7 °C 1010.4 hPa Calm     84 % 0.0 mm 204.0 W/m2 CLR
10:42 22.6 °C 19.7 °C 1010.4 hPa Calm     84 % 0.0 mm 262.0 W/m2 CLR
10:47 22.6 °C 19.6 °C 1010.4 hPa Calm     83 % 0.0 mm 192.0 W/m2 CLR
10:52 22.7 °C 19.6 °C 1010.4 hPa Calm     83 % 0.0 mm 278.0 W/m2 CLR
10:57 22.8 °C 19.7 °C 1010.0 hPa Calm     83 % 0.0 mm 591.0 W/m2 CLR
11:02 23.1 °C 19.9 °C 1010.0 hPa Calm     82 % 0.0 mm 380.0 W/m2 CLR
11:07 23.3 °C 20.1 °C 1010.0 hPa Calm     82 % 0.0 mm 817.0 W/m2 CLR
11:12 23.7 °C 20.4 °C 1010.0 hPa Calm     82 % 0.0 mm 784.0 W/m2 CLR
11:17 24.0 °C 20.1 °C 1010.0 hPa Calm     79 % 0.0 mm 788.0 W/m2 CLR
11:22 24.3 °C 20.4 °C 1010.0 hPa Calm     79 % 0.0 mm 749.0 W/m2 CLR
11:27 24.7 °C 20.4 °C 1010.0 hPa Calm     77 % 0.0 mm 726.0 W/m2 CLR
11:32 25.2 °C 20.8 °C 1010.0 hPa Calm     77 % 0.0 mm 777.0 W/m2 CLR
11:37 25.7 °C 21.1 °C 1010.0 hPa Calm     76 % 0.0 mm 775.0 W/m2 CLR
11:42 26.1 °C 20.6 °C 1010.0 hPa North 5.6 km/h 5.6 km/h 72 % 0.0 mm 784.0 W/m2 CLR
11:48 26.1 °C 20.4 °C 1010.0 hPa NE 5.6 km/h   71 % 0.0 mm 795.0 W/m2 CLR
11:53 26.3 °C 20.4 °C 1010.0 hPa Calm   0.3 km/h 70 % 0.0 mm 796.0 W/m2 CLR
11:58 26.4 °C 20.2 °C 1009.7 hPa Calm   0.2 km/h 69 % 0.0 mm 807.0 W/m2 CLR
12:03 26.4 °C 20.0 °C 1009.7 hPa Calm     68 % 0.0 mm 810.0 W/m2 CLR
12:08 26.6 °C 19.7 °C 1009.7 hPa ENE 7.4 km/h 7.4 km/h 66 % 0.0 mm 821.0 W/m2 CLR
12:13 26.7 °C 19.1 °C 1009.7 hPa ENE 8.0 km/h 8.0 km/h 63 % 0.0 mm 830.0 W/m2 CLR
12:18 26.9 °C 18.8 °C 1009.7 hPa ENE 9.3 km/h 9.3 km/h 61 % 0.0 mm 835.0 W/m2 CLR
12:23 27.3 °C 18.6 °C 1009.7 hPa ESE 9.7 km/h 9.7 km/h 59 % 0.0 mm 846.0 W/m2 CLR
12:28 27.6 °C 18.6 °C 1009.7 hPa Calm     58 % 0.0 mm 853.0 W/m2 CLR
12:33 27.8 °C 18.2 °C 1009.7 hPa ENE 14.5 km/h 14.5 km/h 56 % 0.0 mm 861.0 W/m2 CLR
12:38 28.1 °C 19.3 °C 1009.4 hPa NNE 13.0 km/h 13.0 km/h 59 % 0.0 mm 867.0 W/m2 CLR
12:43 28.1 °C 19.1 °C 1009.4 hPa NNE 11.1 km/h 11.1 km/h 58 % 0.0 mm 868.0 W/m2 CLR
12:48 28.3 °C 18.4 °C 1009.4 hPa NNE 11.1 km/h 11.1 km/h 55 % 0.0 mm 879.0 W/m2 CLR
12:53 28.4 °C 18.2 °C 1009.4 hPa NE 16.7 km/h 16.7 km/h 54 % 0.0 mm 884.0 W/m2 CLR
12:58 28.6 °C 18.3 °C 1009.4 hPa ENE 9.7 km/h 9.7 km/h 54 % 0.0 mm 888.0 W/m2 CLR
13:03 28.7 °C 17.6 °C 1009.4 hPa NNE 9.7 km/h 9.7 km/h 51 % 0.0 mm 893.0 W/m2 CLR
13:08 28.9 °C 18.4 °C 1009.4 hPa NE 8.0 km/h 8.0 km/h 53 % 0.0 mm 898.0 W/m2 CLR
13:13 29.3 °C 17.8 °C 1009.4 hPa NE 18.5 km/h 18.5 km/h 50 % 0.0 mm 904.0 W/m2 CLR
13:18 29.2 °C 18.1 °C 1009.0 hPa NE 13.0 km/h 13.0 km/h 51 % 0.0 mm 909.0 W/m2 CLR
13:23 29.2 °C 17.7 °C 1009.0 hPa North 14.8 km/h 14.8 km/h 50 % 0.0 mm 911.0 W/m2 CLR
13:28 29.3 °C 17.8 °C 1009.0 hPa ENE 16.1 km/h 16.1 km/h 50 % 0.0 mm 907.0 W/m2 CLR
13:33 29.6 °C 18.1 °C 1009.0 hPa NE 16.1 km/h 16.1 km/h 50 % 0.0 mm 909.0 W/m2 CLR
13:38 29.8 °C 17.9 °C 1009.0 hPa ENE 16.7 km/h 16.7 km/h 49 % 0.0 mm 914.0 W/m2 CLR
13:43 29.9 °C 17.3 °C 1009.0 hPa NNE 13.0 km/h 13.0 km/h 47 % 0.0 mm 919.0 W/m2 CLR
13:48 29.8 °C 17.3 °C 1009.0 hPa NNE 16.7 km/h 16.7 km/h 47 % 0.0 mm 923.0 W/m2 CLR
13:53 29.9 °C 17.4 °C 1008.7 hPa North 20.9 km/h 20.9 km/h 47 % 0.0 mm 928.0 W/m2 CLR
13:58 29.8 °C 17.3 °C 1008.7 hPa NNE 14.8 km/h 14.8 km/h 47 % 0.0 mm 939.0 W/m2 CLR
14:03 29.9 °C 17.0 °C 1009.0 hPa ENE 13.0 km/h 13.0 km/h 46 % 0.0 mm 1000.0 W/m2 CLR
14:08 30.2 °C 17.3 °C 1009.0 hPa North 20.4 km/h 20.4 km/h 46 % 0.0 mm 1044.0 W/m2 CLR
14:13 30.2 °C 16.9 °C 1008.7 hPa NNE 20.4 km/h 20.4 km/h 45 % 0.0 mm 1044.0 W/m2 CLR
14:19 29.9 °C 16.7 °C 1008.7 hPa North 18.5 km/h 18.5 km/h 45 % 0.0 mm 350.0 W/m2 CLR
14:24 29.8 °C 16.9 °C 1008.7 hPa NE 18.5 km/h 18.5 km/h 46 % 0.0 mm 355.0 W/m2 CLR
14:29 29.8 °C 17.3 °C 1009.0 hPa NE 22.2 km/h 22.2 km/h 47 % 0.0 mm 404.0 W/m2 CLR
14:34 29.6 °C 16.8 °C 1009.0 hPa North 24.1 km/h 24.1 km/h 46 % 0.0 mm 295.0 W/m2 CLR
14:39 29.3 °C 16.8 °C 1008.7 hPa NE 13.0 km/h 13.0 km/h 47 % 0.0 mm 297.0 W/m2 CLR
14:44 29.3 °C 17.5 °C 1008.7 hPa NE 16.7 km/h 16.7 km/h 49 % 0.0 mm 316.0 W/m2 CLR
14:49 29.5 °C 17.3 °C 1008.7 hPa North 16.7 km/h 16.7 km/h 48 % 0.0 mm 960.0 W/m2 CLR
14:54 29.8 °C 17.9 °C 1008.7 hPa NNE 11.3 km/h 11.3 km/h 49 % 0.0 mm 912.0 W/m2 CLR
14:59 30.1 °C 17.6 °C 1008.7 hPa NE 12.9 km/h 12.9 km/h 47 % 0.0 mm 905.0 W/m2 CLR
15:04 30.3 °C 17.4 °C 1008.7 hPa NE 14.8 km/h 14.8 km/h 46 % 0.0 mm 914.0 W/m2 CLR
15:09 30.4 °C 16.8 °C 1008.7 hPa NE 14.8 km/h 14.8 km/h 44 % 0.0 mm 909.0 W/m2 CLR
15:14 30.3 °C 17.1 °C 1008.7 hPa East 11.3 km/h 11.3 km/h 45 % 0.0 mm 902.0 W/m2 CLR
15:19 30.4 °C 17.5 °C 1008.4 hPa NNW 7.4 km/h 7.4 km/h 46 % 0.0 mm 891.0 W/m2 CLR
15:24 30.8 °C 17.1 °C 1008.4 hPa North 18.5 km/h 18.5 km/h 44 % 0.0 mm 888.0 W/m2 CLR
15:29 30.9 °C 17.6 °C 1008.4 hPa North 16.7 km/h 16.7 km/h 45 % 0.0 mm 935.0 W/m2 CLR
15:34 31.1 °C 17.4 °C 1008.4 hPa North 18.5 km/h 18.5 km/h 44 % 0.0 mm 861.0 W/m2 CLR
15:39 30.8 °C 16.8 °C 1008.4 hPa North 13.0 km/h 13.0 km/h 43 % 0.0 mm 854.0 W/m2 CLR
15:44 30.7 °C 17.0 °C 1008.4 hPa North 14.8 km/h 14.8 km/h 44 % 0.0 mm 837.0 W/m2 CLR
15:49 30.6 °C 16.9 °C 1008.4 hPa ENE 20.4 km/h 20.4 km/h 44 % 0.0 mm 835.0 W/m2 CLR
15:54 30.6 °C 16.9 °C 1008.4 hPa NNW 11.1 km/h 11.1 km/h 44 % 0.0 mm 844.0 W/m2 CLR
15:59 30.5 °C 17.2 °C 1008.4 hPa North 18.5 km/h 18.5 km/h 45 % 0.0 mm 849.0 W/m2 CLR
16:04 30.3 °C 17.0 °C 1008.4 hPa North 20.4 km/h 20.4 km/h 45 % 0.0 mm 346.0 W/m2 CLR
16:09 30.1 °C 16.8 °C 1008.4 hPa NNW 11.1 km/h 11.1 km/h 45 % 0.0 mm 949.0 W/m2 CLR
16:14 30.3 °C 17.4 °C 1008.4 hPa NNE 18.5 km/h 18.5 km/h 46 % 0.0 mm 826.0 W/m2 CLR
16:19 30.6 °C 16.9 °C 1008.4 hPa NE 20.4 km/h 20.4 km/h 44 % 0.0 mm 795.0 W/m2 CLR
16:24 30.5 °C 17.2 °C 1008.4 hPa NE 9.3 km/h 9.3 km/h 45 % 0.0 mm 773.0 W/m2 CLR
16:29 30.7 °C 17.1 °C 1008.4 hPa NNE 18.5 km/h 18.5 km/h 44 % 0.0 mm 768.0 W/m2 CLR
16:34 30.8 °C 17.2 °C 1008.4 hPa NNW 18.5 km/h 18.5 km/h 44 % 0.0 mm 754.0 W/m2 CLR
16:39 30.9 °C 16.8 °C 1008.4 hPa Calm     43 % 0.0 mm 742.0 W/m2 CLR
16:44 31.1 °C 17.0 °C 1008.4 hPa North 14.8 km/h 14.8 km/h 43 % 0.0 mm 735.0 W/m2 CLR
16:49 31.2 °C 17.5 °C 1008.4 hPa NE 9.7 km/h 9.7 km/h 44 % 0.0 mm 721.0 W/m2 CLR
16:54 31.3 °C 17.6 °C 1008.4 hPa NNW 9.3 km/h 9.3 km/h 44 % 0.0 mm 701.0 W/m2 CLR
16:59 31.1 °C 17.4 °C 1008.0 hPa North 11.1 km/h 11.1 km/h 44 % 0.0 mm 707.0 W/m2 CLR
17:04 31.4 °C 17.7 °C 1008.0 hPa ENE 9.3 km/h 9.3 km/h 44 % 0.0 mm 693.0 W/m2 CLR
17:09 31.6 °C 17.5 °C 1008.0 hPa North 17.7 km/h 17.7 km/h 43 % 0.0 mm 682.0 W/m2 CLR
17:14 31.5 °C 17.4 °C 1008.0 hPa NW 11.3 km/h 11.3 km/h 43 % 0.0 mm 687.0 W/m2 CLR
17:19 31.7 °C 17.6 °C 1008.0 hPa NNW 1.9 km/h 1.9 km/h 43 % 0.0 mm 700.0 W/m2 CLR
17:24 31.9 °C 17.4 °C 1008.0 hPa North 24.1 km/h 24.1 km/h 42 % 0.0 mm 673.0 W/m2 CLR
17:29 31.6 °C 17.4 °C 1008.0 hPa NW 16.7 km/h 16.7 km/h 43 % 0.0 mm 624.0 W/m2 CLR
17:34 31.4 °C 16.9 °C 1008.0 hPa NE 11.3 km/h 11.3 km/h 42 % 0.0 mm 621.0 W/m2 CLR
17:39 31.4 °C 17.3 °C 1008.0 hPa North 11.1 km/h 11.1 km/h 43 % 0.0 mm 606.0 W/m2 CLR
17:44 31.4 °C 16.9 °C 1008.0 hPa NNW 20.4 km/h 20.4 km/h 42 % 0.0 mm 585.0 W/m2 CLR
17:49 31.2 °C 16.8 °C 1008.0 hPa NNW 20.4 km/h 20.4 km/h 42 % 0.0 mm 570.0 W/m2 CLR
17:54 31.1 °C 16.3 °C 1008.0 hPa NW 9.3 km/h 9.3 km/h 41 % 0.0 mm 561.0 W/m2 CLR
17:59 31.2 °C 16.4 °C 1008.0 hPa NNW 16.7 km/h 16.7 km/h 41 % 0.0 mm 552.0 W/m2 CLR
18:04 31.2 °C 16.7 °C 1008.0 hPa NNE 13.0 km/h 13.0 km/h 42 % 0.0 mm 545.0 W/m2 CLR
18:09 31.1 °C 17.1 °C 1007.7 hPa NNE 7.4 km/h 7.4 km/h 43 % 0.0 mm 306.0 W/m2 CLR
18:14 30.8 °C 16.8 °C 1008.0 hPa NNW 11.1 km/h 11.1 km/h 43 % 0.0 mm 234.0 W/m2 CLR
18:19 31.0 °C 16.9 °C 1008.0 hPa NNE 9.3 km/h 9.3 km/h 43 % 0.0 mm 570.0 W/m2 CLR
18:24 31.0 °C 17.3 °C 1007.7 hPa North 14.8 km/h 14.8 km/h 44 % 0.0 mm 541.0 W/m2 CLR
18:29 31.2 °C 17.2 °C 1007.7 hPa North 25.9 km/h 25.9 km/h 43 % 0.0 mm 461.0 W/m2 CLR
18:34 31.1 °C 17.1 °C 1007.7 hPa NNE 13.0 km/h 13.0 km/h 43 % 0.0 mm 446.0 W/m2 CLR
18:39 31.1 °C 17.4 °C 1007.7 hPa North 20.4 km/h 20.4 km/h 44 % 0.0 mm 434.0 W/m2 CLR
18:44 30.8 °C 16.8 °C 1007.7 hPa North 7.4 km/h 7.4 km/h 43 % 0.0 mm 413.0 W/m2 CLR
18:49 30.8 °C 16.8 °C 1007.7 hPa NNE 22.5 km/h 22.5 km/h 43 % 0.0 mm 373.0 W/m2 CLR
18:54 30.7 °C 16.7 °C 1007.7 hPa NNE 20.4 km/h 20.4 km/h 43 % 0.0 mm 408.0 W/m2 CLR
18:59 30.6 °C 16.6 °C 1007.7 hPa NNE 18.5 km/h 18.5 km/h 43 % 0.0 mm 376.0 W/m2 CLR
19:04 30.8 °C 16.8 °C 1007.7 hPa North 16.1 km/h 16.1 km/h 43 % 0.0 mm 352.0 W/m2 CLR
19:09 30.8 °C 16.8 °C 1007.7 hPa North 16.1 km/h 16.1 km/h 43 % 0.0 mm 339.0 W/m2 CLR
19:14 30.6 °C 16.6 °C 1008.0 hPa North 22.5 km/h 22.5 km/h 43 % 0.0 mm 316.0 W/m2 CLR
19:19 30.4 °C 16.8 °C 1008.0 hPa North 18.5 km/h 18.5 km/h 44 % 0.0 mm 302.0 W/m2 CLR
19:24 30.4 °C 16.8 °C 1008.0 hPa North 20.4 km/h 20.4 km/h 44 % 0.0 mm 283.0 W/m2 CLR
19:25 30.4 °C 16.8 °C 1008.0 hPa NNE 20.4 km/h 20.4 km/h 44 % 0.0 mm 283.0 W/m2 CLR
19:30 30.3 °C 16.7 °C 1008.0 hPa North 16.7 km/h 16.7 km/h 44 % 0.0 mm 265.0 W/m2 CLR
19:35 30.2 °C 16.6 °C 1008.0 hPa North 18.5 km/h 18.5 km/h 44 % 0.0 mm 250.0 W/m2 CLR
19:36 30.2 °C 16.6 °C 1008.0 hPa North 18.5 km/h 18.5 km/h 44 % 0.0 mm 246.0 W/m2 CLR
19:41 30.1 °C 16.5 °C 1008.0 hPa North 5.6 km/h 5.6 km/h 44 % 0.0 mm 236.0 W/m2 CLR
19:46 30.2 °C 16.6 °C 1008.4 hPa North 16.7 km/h 16.7 km/h 44 % 0.0 mm 221.0 W/m2 CLR
19:51 30.1 °C 16.4 °C 1008.4 hPa North 18.5 km/h 18.5 km/h 44 % 0.0 mm 207.0 W/m2 CLR
19:56 30.0 °C 16.4 °C 1008.4 hPa NNW 14.8 km/h 14.8 km/h 44 % 0.0 mm 186.0 W/m2 CLR
20:01 30.0 °C 16.1 °C 1008.4 hPa NNW 11.1 km/h 11.1 km/h 43 % 0.0 mm 172.0 W/m2 CLR
20:06 29.8 °C 16.3 °C 1008.4 hPa NNW 18.5 km/h 18.5 km/h 44 % 0.0 mm 158.0 W/m2 CLR
20:11 29.6 °C 16.1 °C 1008.4 hPa North 18.5 km/h 18.5 km/h 44 % 0.0 mm 144.0 W/m2 CLR
20:16 29.6 °C 16.0 °C 1008.4 hPa North 11.1 km/h 11.1 km/h 44 % 0.0 mm 127.0 W/m2 CLR
20:21 29.5 °C 15.9 °C 1008.4 hPa NNW 9.3 km/h 9.3 km/h 44 % 0.0 mm 113.0 W/m2 CLR
20:26 29.3 °C 15.8 °C 1008.4 hPa NNW 9.3 km/h 9.3 km/h 44 % 0.0 mm 104.0 W/m2 CLR
20:31 29.3 °C 15.8 °C 1008.4 hPa NNW 13.0 km/h 13.0 km/h 44 % 0.0 mm 93.0 W/m2 CLR
20:36 29.3 °C 16.1 °C 1008.7 hPa NNW 9.7 km/h 9.7 km/h 45 % 0.0 mm 81.0 W/m2 FEW
20:41 29.1 °C 15.9 °C 1008.7 hPa North 11.1 km/h 11.1 km/h 45 % 0.0 mm 69.0 W/m2 FEW
20:46 29.1 °C 16.3 °C 1008.7 hPa North 9.7 km/h 9.7 km/h 46 % 0.0 mm 42.0 W/m2 SCT
20:51 28.9 °C 16.2 °C 1008.7 hPa North 8.0 km/h 8.0 km/h 46 % 0.0 mm 46.0 W/m2 BKN
20:56 28.8 °C 16.3 °C 1008.7 hPa North 7.4 km/h 7.4 km/h 47 % 0.0 mm 40.0 W/m2 BKN
21:01 28.7 °C 16.2 °C 1008.7 hPa Calm     47 % 0.0 mm 30.0 W/m2 BKN
21:07 28.6 °C 16.2 °C 1008.7 hPa North 7.4 km/h 7.4 km/h 47 % 0.0 mm 25.0 W/m2 BKN
21:11 28.4 °C 16.3 °C 1008.7 hPa Calm   1.3 km/h 48 % 0.0 mm 19.0 W/m2 BKN
21:17 28.2 °C 16.1 °C 1008.7 hPa Calm     48 % 0.0 mm 16.0 W/m2 BKN
21:22 28.0 °C 16.3 °C 1008.7 hPa Calm     49 % 0.0 mm 12.0 W/m2 BKN
21:27 27.8 °C 16.4 °C 1008.7 hPa Calm     50 % 0.0 mm 9.0 W/m2 BKN
21:32 27.6 °C 16.2 °C 1008.7 hPa Calm     50 % 0.0 mm 5.0 W/m2 OVC
21:37 27.4 °C 16.4 °C 1008.7 hPa Calm     51 % 0.0 mm 0.0 W/m2 OVC
21:42 27.3 °C 16.3 °C 1008.7 hPa Calm     51 % 0.0 mm 0.0 W/m2 OVC
21:47 27.2 °C 16.4 °C 1008.7 hPa Calm     52 % 0.0 mm 0.0 W/m2 CLR
21:52 27.0 °C 16.3 °C 1008.7 hPa Calm     52 % 0.0 mm 0.0 W/m2 CLR
21:57 26.9 °C 16.2 °C 1009.0 hPa Calm     52 % 0.0 mm 0.0 W/m2 CLR
22:02 26.8 °C 16.4 °C 1009.0 hPa Calm     53 % 0.0 mm 0.0 W/m2 CLR
22:07 26.7 °C 16.7 °C 1009.0 hPa Calm     54 % 0.0 mm 0.0 W/m2 CLR
22:12 26.6 °C 16.8 °C 1009.0 hPa Calm     55 % 0.0 mm 0.0 W/m2 CLR
22:17 26.4 °C 16.7 °C 1009.4 hPa Calm     55 % 0.0 mm 0.0 W/m2 CLR
22:22 26.3 °C 16.8 °C 1009.4 hPa Calm     56 % 0.0 mm 0.0 W/m2 CLR
22:27 26.2 °C 17.0 °C 1009.4 hPa Calm     57 % 0.0 mm 0.0 W/m2 CLR
22:32 26.0 °C 17.1 °C 1009.4 hPa Calm     58 % 0.0 mm 0.0 W/m2 CLR
22:37 25.9 °C 17.3 °C 1009.4 hPa Calm     59 % 0.0 mm 0.0 W/m2 CLR
22:42 25.6 °C 17.0 °C 1009.4 hPa Calm     59 % 0.0 mm 0.0 W/m2 CLR
22:47 25.4 °C 17.1 °C 1009.4 hPa Calm     60 % 0.0 mm 0.0 W/m2 CLR
22:52 25.3 °C 17.0 °C 1009.7 hPa Calm     60 % 0.0 mm 0.0 W/m2 CLR
22:53 25.3 °C 17.3 °C 1009.7 hPa Calm     61 % 0.0 mm 0.0 W/m2 CLR
22:58 25.2 °C 17.4 °C 1009.7 hPa Calm     62 % 0.0 mm 0.0 W/m2 CLR
23:03 24.9 °C 17.2 °C 1009.7 hPa Calm     62 % 0.0 mm 0.0 W/m2 CLR
23:08 24.7 °C 17.2 °C 1009.7 hPa Calm     63 % 0.0 mm 0.0 W/m2 CLR
23:13 24.6 °C 17.1 °C 1009.7 hPa Calm     63 % 0.0 mm 0.0 W/m2 CLR
23:18 24.4 °C 17.4 °C 1009.7 hPa Calm     65 % 0.0 mm 0.0 W/m2 CLR
23:23 24.3 °C 17.3 °C 1009.7 hPa Calm     65 % 0.0 mm 0.0 W/m2 CLR
23:28 24.1 °C 17.3 °C 1009.7 hPa Calm     66 % 0.0 mm 0.0 W/m2 CLR
23:33 24.0 °C 17.5 °C 1009.7 hPa Calm     67 % 0.0 mm 0.0 W/m2 CLR
23:38 23.8 °C 17.6 °C 1009.7 hPa Calm     68 % 0.0 mm 0.0 W/m2 CLR
23:43 23.6 °C 17.3 °C 1009.7 hPa Calm     68 % 0.0 mm 0.0 W/m2 CLR
23:48 23.5 °C 17.5 °C 1009.7 hPa Calm     69 % 0.0 mm 0.0 W/m2 CLR
23:53 23.3 °C 17.3 °C 1009.7 hPa Calm     69 % 0.0 mm 0.0 W/m2 CLR
23:55 23.3 °C 17.5 °C 1009.7 hPa Calm     70 % 0.0 mm 0.0 W/m2 CLR
Lo Temps de Massalio
Compliments of Weather Underground - 1.25 mb